ADDS METAR Data INFO
IDs: Format: Raw Decoded Include TAF

Data at: 2051 UTC 19 Jul 2018

KERY 192035Z AUTO 16007KT 7SM CLR 25/11 A2997 RMK AO2 T02500108
KERY 192015Z AUTO 17010G15KT 5SM HZ CLR 25/10 A2997 RMK AO2 T02530098
KERY 191955Z AUTO 19010G16KT 7SM CLR 26/10 A2997 RMK AO2 T02550104
KERY 191935Z AUTO 16011KT 7SM CLR 26/11 A2998 RMK AO2 T02570112
KERY 191915Z AUTO 15011G14KT 7SM CLR 26/10 A2998 RMK AO2 T02640104
KERY 191855Z AUTO 16011G16KT 7SM CLR 26/11 A2998 RMK AO2 T02610113
KERY 191835Z AUTO 16009G15KT 10SM CLR 26/11 A2998 RMK AO2 T02600113
KERY 191815Z AUTO 15011G14KT 5SM HZ CLR 26/11 A2998 RMK AO2 T02590114
KERY 191755Z AUTO 21006G15KT 7SM CLR 25/12 A2998 RMK AO2 T02540118 10256 20167
KERY 191735Z AUTO 21008KT 10SM CLR 26/12 A2999 RMK AO2 T02560119
KERY 191715Z AUTO 16006KT 7SM CLR 26/12 A2999 RMK AO2 T02550116
KERY 191655Z AUTO 14006KT 10SM SCT037 25/13 A3000 RMK AO2 T02510131
KERY 191635Z AUTO 17008KT 10SM SCT037 25/15 A2999 RMK AO2 T02470149
KERY 191615Z AUTO 23003KT 7SM CLR 24/15 A3000 RMK AO2 T02430150
KERY 191555Z AUTO 14010KT 10SM CLR 24/16 A3000 RMK AO2 T02410156
KERY 191535Z AUTO 19006KT 10SM CLR 24/16 A3001 RMK AO2 T02420157
KERY 191515Z AUTO 21006KT 10SM CLR 23/15 A3001 RMK AO2 T02310148
KERY 191455Z AUTO 23006KT 7SM CLR 23/15 A3002 RMK AO2 T02280146
KERY 191435Z AUTO 22003KT 10SM CLR 22/16 A3003 RMK AO2 T02200162
KERY 191415Z AUTO 21006KT 5SM HZ CLR 22/16 A3003 RMK AO2 T02160160
KERY 191355Z AUTO 21006KT 7SM CLR 21/16 A3003 RMK AO2 T02100161
KERY 191335Z AUTO 20006KT 7SM CLR 21/17 A3003 RMK AO2 T02050166
KERY 191315Z AUTO 19006KT 10SM CLR 20/18 A3003 RMK AO2 T01970177
KERY 191255Z AUTO 19007KT 10SM CLR 19/18 A3004 RMK AO2 T01890179
KERY 191235Z AUTO 20007KT 10SM CLR 18/18 A3004 RMK AO2 T01820177
KERY 191215Z AUTO 19007KT 7SM CLR 18/17 A3004 RMK AO2 T01750170
KERY 191155Z AUTO 21006KT 10SM CLR 17/16 A3004 RMK AO2 T01660161 10166 20119
KERY 191135Z AUTO 20005KT 10SM CLR 16/15 A3004 RMK AO2 T01560151
KERY 191115Z AUTO 19003KT 10SM SCT001 15/14 A3004 RMK AO2 T01460141
KERY 191055Z AUTO 19004KT 10SM SCT001 15/14 A3004 RMK AO2 T01450140
KERY 191035Z AUTO 19004KT 7SM SCT001 14/13 A3004 RMK AO2 T01390134
KERY 191015Z AUTO 17003KT 7SM SCT001 13/13 A3004 RMK AO2 T01310126
KERY 190955Z AUTO 19004KT 4SM BR SCT001 13/13 A3004 RMK AO2 T01310126
KERY 190935Z AUTO 18003KT 10SM CLR 13/12 A3004 RMK AO2 T01270122
KERY 190915Z AUTO 19003KT 10SM CLR 13/13 A3004 RMK AO2 T01300125
KERY 190855Z AUTO 20004KT 10SM CLR 13/13 A3004 RMK AO2 T01300125
KERY 190835Z AUTO 21005KT 10SM CLR 13/13 A3003 RMK AO2 T01310126
KERY 190815Z AUTO 22005KT 10SM CLR 13/13 A3003 RMK AO2 T01300125
KERY 190755Z AUTO 21006KT 10SM CLR 12/12 A3003 RMK AO2 T01210116
KERY 190735Z AUTO 22004KT 10SM CLR 12/12 A3003 RMK AO2 T01200115
KERY 190715Z AUTO 22005KT 10SM CLR 12/12 A3003 RMK AO2 T01230118
KERY 190655Z AUTO 21005KT 10SM CLR 12/12 A3002 RMK AO2 T01220117
KERY 190635Z AUTO 20005KT 10SM CLR 12/12 A3003 RMK AO2 T01210116
KERY 190615Z AUTO 21005KT 10SM CLR 12/12 A3004 RMK AO2 T01220117
KERY 190555Z AUTO 21005KT 10SM CLR 13/12 A3004 RMK AO2 T01250120 10211 20125 402490050
KERY 190535Z AUTO 21005KT 10SM CLR 13/12 A3004 RMK AO2 T01270122
KERY 190515Z AUTO 23005KT 10SM CLR 14/13 A3004 RMK AO2 T01350130
KERY 190455Z AUTO 22005KT 10SM CLR 13/13 A3004 RMK AO2 T01300125
KERY 190435Z AUTO 23005KT 10SM CLR 14/13 A3004 RMK AO2 T01360131
KERY 190415Z AUTO 22005KT 10SM CLR 13/13 A3004 RMK AO2 T01340129
KERY 190355Z AUTO 23005KT 10SM CLR 14/13 A3004 RMK AO2 T01350130
KERY 190335Z AUTO 22005KT 10SM CLR 13/13 A3004 RMK AO2 T01300125
KERY 190315Z AUTO 21005KT 10SM CLR 13/13 A3004 RMK AO2 T01300125
KERY 190255Z AUTO 21004KT 10SM CLR 14/13 A3004 RMK AO2 T01360131
KERY 190235Z AUTO 21005KT 10SM CLR 14/14 A3005 RMK AO2 T01410136
KERY 190215Z AUTO 21005KT 10SM CLR 15/13 A3004 RMK AO2 T01480130
KERY 190155Z AUTO 22006KT 10SM CLR 16/13 A3004 RMK AO2 T01550127
KERY 190135Z AUTO 21006KT 10SM CLR 17/12 A3004 RMK AO2 T01650124
KERY 190115Z AUTO 20005KT 10SM CLR 18/13 A3004 RMK AO2 T01760126
KERY 190055Z AUTO 20006KT 7SM CLR 19/12 A3004 RMK AO2 T01880121
KERY 190035Z AUTO 21007KT 7SM CLR 20/12 A3004 RMK AO2 T01970122
KERY 190015Z AUTO 21007KT 10SM CLR 21/12 A3004 RMK AO2 T02070115
KERY 182355Z AUTO 20007KT 7SM CLR 21/11 A3004 RMK AO2 T02110113 10249 20211
KERY 182335Z AUTO 21008KT 7SM CLR 22/11 A3004 RMK AO2 T02170114
KERY 182315Z AUTO 20007KT 10SM CLR 23/11 A3004 RMK AO2 T02250105
KERY 182255Z AUTO 02004KT 7SM CLR 23/07 A3004 RMK AO2 T02320070
KERY 182235Z AUTO 00000KT 10SM CLR 23/06 A3004 RMK AO2 T02330063
KERY 182215Z AUTO 32004KT 7SM CLR 24/07 A3005 RMK AO2 T02440066
KERY 182155Z AUTO 00000KT 10SM CLR 24/06 A3006 RMK AO2 T02430061
KERY 182135Z AUTO 36004KT 10SM CLR 24/06 A3006 RMK AO2 T02360060
KERY 182115Z AUTO 02003KT 7SM CLR 24/07 A3006 RMK AO2 T02380067
KERY 182055Z AUTO 03004KT 10SM CLR 24/07 A3007 RMK AO2 T02360066
KERY 182035Z AUTO 29006KT 10SM CLR 23/07 A3007 RMK AO2 T02320066
KERY 182015Z AUTO 05004KT 10SM CLR 23/07 A3007 RMK AO2 T02310066
KERY 181955Z AUTO 34007KT 10SM SCT055 23/08 A3008 RMK AO2 T02330075
KERY 181935Z AUTO 33004KT 7SM SCT055 24/07 A3008 RMK AO2 T02370072
KERY 181915Z AUTO 01004KT 10SM SCT055 22/08 A3009 RMK AO2 T02190078
KERY 181855Z AUTO 08004KT 7SM SCT055 22/08 A3009 RMK AO2 T02240078
KERY 181835Z AUTO 09003KT 10SM CLR 22/08 A3010 RMK AO2 T02240075
KERY 181815Z AUTO 34006KT 10SM CLR 22/07 A3010 RMK AO2 T02200071
KERY 181755Z AUTO 08004KT 7SM CLR 22/08 A3011 RMK AO2 T02150084 10216 20096
KERY 181735Z AUTO 36003KT 10SM CLR 21/08 A3011 RMK AO2 T02090075
KERY 181715Z AUTO 00000KT 10SM CLR 20/07 A3012 RMK AO2 T02040072
KERY 181655Z AUTO 00000KT 10SM CLR 20/07 A3012 RMK AO2 T02030070
KERY 181635Z AUTO 34003KT 7SM CLR 20/07 A3013 RMK AO2 T02000066
KERY 181615Z AUTO 00000KT 10SM CLR 19/07 A3014 RMK AO2 T01940065
KERY 181555Z AUTO 00000KT 10SM CLR 19/08 A3014 RMK AO2 T01880077
KERY 181535Z AUTO 09003KT 10SM CLR 18/08 A3014 RMK AO2 T01830080
KERY 181515Z AUTO 00000KT 7SM CLR 18/08 A3015 RMK AO2 T01830077
KERY 181455Z AUTO 00000KT 10SM CLR 18/09 A3015 RMK AO2 T01770089
KERY 181435Z AUTO 33004KT 7SM CLR 17/09 A3016 RMK AO2 T01670094
KERY 181415Z AUTO 30004KT 10SM CLR 16/10 A3016 RMK AO2 T01620099
KERY 181355Z AUTO 32004KT 7SM CLR 16/10 A3016 RMK AO2 T01550102
KERY 181335Z AUTO 28003KT 7SM CLR 15/10 A3016 RMK AO2 T01470104
KERY 181315Z AUTO 29004KT 10SM CLR 14/10 A3017 RMK AO2 T01400100
KERY 181255Z AUTO 27003KT 10SM CLR 13/10 A3017 RMK AO2 T01270102
KERY 181235Z AUTO 26005KT 10SM CLR 12/10 A3017 RMK AO2 T01200103
KERY 181215Z AUTO 27003KT 10SM CLR 11/10 A3016 RMK AO2 T01070102
KERY 181155Z AUTO 25003KT 7SM CLR 09/09 A3015 RMK AO2 T00940089 10097 20050
KERY 181135Z AUTO 24003KT 10SM CLR 10/09 A3015 RMK AO2 T00960091
KERY 181115Z AUTO 30003KT 10SM CLR 09/09 A3015 RMK AO2 T00930088
KERY 181055Z AUTO 00000KT 10SM CLR 09/08 A3014 RMK AO2 T00890084
KERY 181035Z AUTO 33003KT 10SM CLR 08/08 A3014 RMK AO2 T00840079
KERY 181015Z AUTO 00000KT 10SM CLR 08/07 A3014 RMK AO2 T00760072
KERY 180955Z AUTO 31003KT 10SM CLR 08/07 A3014 RMK AO2 T00750070
KERY 180935Z AUTO 00000KT 10SM CLR 08/07 A3014 RMK AO2 T00760071
KERY 180915Z AUTO 00000KT 10SM CLR 07/07 A3014 RMK AO2 T00720067
KERY 180855Z AUTO 00000KT 10SM CLR 08/07 A3014 RMK AO2 T00760071